Time;durP1;ratioP1;P1;durP2;ratioP2;P2;SDS_P1;SDS_P2;PMS_P1;PMS_P2;Temp;Humidity;BMP_temperature;BMP_pressure;BME280_temperature;BME280_humidity;BME280_pressure;Samples;Min_cycle;Max_cycle;Signal;HPM_P1;HPM_P2
2023/11/13 00:00:18;;;;;;;1.20;0.93;;;5.00;92.30;;;;;;4805099;29;20624;-75
2023/11/13 00:02:44;;;;;;;1.63;0.95;;;5.00;92.40;;;;;;4773679;29;20410;-75
2023/11/13 00:05:11;;;;;;;1.33;0.85;;;5.00;92.40;;;;;;4788528;29;20547;-75
2023/11/13 00:07:37;;;;;;;1.15;0.85;;;5.00;92.40;;;;;;4758549;29;20125;-76
2023/11/13 00:10:03;;;;;;;1.00;0.90;;;4.90;92.40;;;;;;4773249;29;20051;-75
2023/11/13 00:12:29;;;;;;;1.92;1.35;;;4.90;92.50;;;;;;4804928;29;20109;-75
2023/11/13 00:14:55;;;;;;;1.98;1.10;;;4.90;92.50;;;;;;4788103;29;20054;-75
2023/11/13 00:17:21;;;;;;;1.23;1.00;;;4.80;92.50;;;;;;4758259;29;20051;-75
2023/11/13 00:19:47;;;;;;;2.00;1.23;;;4.80;92.50;;;;;;4788548;29;20050;-75
2023/11/13 00:22:13;;;;;;;1.77;1.00;;;4.80;92.60;;;;;;4804550;29;20398;-74
2023/11/13 00:24:39;;;;;;;1.50;0.90;;;4.80;92.60;;;;;;4804296;29;20100;-75
2023/11/13 00:27:05;;;;;;;1.17;0.98;;;4.80;92.60;;;;;;4804443;29;20054;-74
2023/11/13 00:29:31;;;;;;;1.50;0.98;;;4.80;92.50;;;;;;4804355;29;20047;-74
2023/11/13 00:31:56;;;;;;;1.83;0.90;;;4.80;92.50;;;;;;4807983;29;20139;-74
2023/11/13 00:34:22;;;;;;;1.70;0.80;;;4.80;92.60;;;;;;4791840;29;20043;-74
2023/11/13 00:36:50;;;;;;;1.95;1.15;;;4.80;92.60;;;;;;4807179;29;20081;-75
2023/11/13 00:39:18;;;;;;;1.63;0.98;;;4.70;92.50;;;;;;4776200;29;20039;-76
2023/11/13 00:41:43;;;;;;;0.73;0.70;;;4.70;92.60;;;;;;4791440;29;20168;-74
2023/11/13 00:44:09;;;;;;;0.85;0.70;;;4.70;92.60;;;;;;4790933;29;20138;-75
2023/11/13 00:46:35;;;;;;;0.88;0.75;;;4.80;92.60;;;;;;4807403;29;20133;-74
2023/11/13 00:49:01;;;;;;;1.35;0.90;;;4.80;92.60;;;;;;4807317;29;20494;-75
2023/11/13 00:51:26;;;;;;;1.58;1.10;;;4.80;92.60;;;;;;4790983;29;20065;-75
2023/11/13 00:53:52;;;;;;;1.25;0.90;;;4.70;92.60;;;;;;4807199;29;20065;-75
2023/11/13 00:56:18;;;;;;;1.83;1.00;;;4.70;92.60;;;;;;4807092;29;20065;-74
2023/11/13 00:58:43;;;;;;;2.30;0.88;;;4.70;92.60;;;;;;4807620;29;20506;-75
2023/11/13 01:01:10;;;;;;;0.98;0.77;;;4.70;92.60;;;;;;4790664;29;20082;-75
2023/11/13 01:03:36;;;;;;;1.35;1.00;;;4.70;92.60;;;;;;4776350;29;20135;-75
2023/11/13 01:06:02;;;;;;;1.65;1.00;;;4.70;92.50;;;;;;4807220;29;20071;-74
2023/11/13 01:08:28;;;;;;;1.25;0.82;;;4.80;92.60;;;;;;4791022;29;20053;-75
2023/11/13 01:10:54;;;;;;;1.60;0.93;;;4.70;92.50;;;;;;4806838;29;20047;-74
2023/11/13 01:13:21;;;;;;;1.27;0.82;;;4.70;92.50;;;;;;4790141;29;20034;-74
2023/11/13 01:15:48;;;;;;;1.77;0.90;;;4.70;92.50;;;;;;4790202;29;20050;-74
2023/11/13 01:18:18;;;;;;;1.17;0.82;;;4.70;92.50;;;;;;4775482;29;20074;-74
2023/11/13 01:20:45;;;;;;;1.88;0.80;;;4.70;92.50;;;;;;4791004;29;20039;-75
2023/11/13 01:23:11;;;;;;;1.55;1.00;;;4.70;92.50;;;;;;4806795;29;20062;-76
2023/11/13 01:25:37;;;;;;;1.83;1.10;;;4.70;92.50;;;;;;4760292;29;20133;-75
2023/11/13 01:28:02;;;;;;;1.58;1.00;;;4.70;92.60;;;;;;4806491;29;20090;-75
2023/11/13 01:30:28;;;;;;;1.30;1.00;;;4.70;92.50;;;;;;4789885;29;20051;-75
2023/11/13 01:32:54;;;;;;;1.02;0.90;;;4.70;92.60;;;;;;4806231;29;20051;-74
2023/11/13 01:35:20;;;;;;;1.08;0.95;;;4.70;92.60;;;;;;4806174;29;20414;-75
2023/11/13 01:37:46;;;;;;;0.80;0.80;;;4.80;92.60;;;;;;4789860;29;20118;-75
2023/11/13 01:40:12;;;;;;;1.45;1.00;;;4.70;92.60;;;;;;4789654;29;20124;-75
2023/11/13 01:42:38;;;;;;;1.33;1.00;;;4.70;92.60;;;;;;4774001;29;20051;-74
2023/11/13 01:45:06;;;;;;;1.13;0.75;;;4.70;92.50;;;;;;4806371;29;20054;-75
2023/11/13 01:47:32;;;;;;;0.85;0.70;;;4.70;92.80;;;;;;4775160;29;20494;-74
2023/11/13 01:49:58;;;;;;;0.82;0.80;;;4.70;92.60;;;;;;4805987;29;20059;-75
2023/11/13 01:52:26;;;;;;;1.15;0.80;;;4.70;92.60;;;;;;4806326;29;20046;-74
2023/11/13 01:54:52;;;;;;;1.30;0.90;;;4.80;92.60;;;;;;4789597;29;20107;-75
2023/11/13 01:57:18;;;;;;;1.98;1.08;;;4.70;92.60;;;;;;4789915;29;20035;-75
2023/11/13 01:59:44;;;;;;;1.77;1.05;;;4.70;92.50;;;;;;4789350;29;20061;-74
2023/11/13 02:02:09;;;;;;;1.73;1.10;;;4.70;92.60;;;;;;4805625;29;20402;-75
2023/11/13 02:04:36;;;;;;;1.25;0.80;;;4.80;92.60;;;;;;4789869;29;20126;-75
2023/11/13 02:07:04;;;;;;;1.52;1.05;;;4.80;92.60;;;;;;4805850;29;20045;-75
2023/11/13 02:09:30;;;;;;;1.42;1.00;;;4.80;92.50;;;;;;4806123;29;20548;-74
2023/11/13 02:11:57;;;;;;;1.15;0.85;;;4.80;92.50;;;;;;4789232;29;20066;-75
2023/11/13 02:14:23;;;;;;;1.27;0.80;;;4.80;92.50;;;;;;4774965;29;20566;-75
2023/11/13 02:16:49;;;;;;;1.20;0.90;;;4.90;92.50;;;;;;4789795;29;20051;-74
2023/11/13 02:19:16;;;;;;;1.60;1.00;;;4.90;92.50;;;;;;4789076;29;20115;-74
2023/11/13 02:21:42;;;;;;;1.23;1.10;;;4.90;92.50;;;;;;4805731;29;20046;-75
2023/11/13 02:24:09;;;;;;;1.67;0.85;;;4.80;92.50;;;;;;4805467;29;20050;-75
2023/11/13 02:26:35;;;;;;;1.08;0.88;;;4.90;92.50;;;;;;4789567;29;20043;-75
2023/11/13 02:29:01;;;;;;;1.73;1.10;;;5.00;92.50;;;;;;4788927;29;20413;-75
2023/11/13 02:31:27;;;;;;;1.77;0.95;;;5.00;92.50;;;;;;4805491;29;20053;-74
2023/11/13 02:33:52;;;;;;;1.27;0.70;;;5.00;92.50;;;;;;4789095;29;20140;-75
2023/11/13 02:36:19;;;;;;;1.70;1.10;;;5.00;92.40;;;;;;4789633;29;20104;-75
2023/11/13 02:38:46;;;;;;;1.10;0.70;;;5.00;92.40;;;;;;4805393;29;20046;-75
2023/11/13 02:41:13;;;;;;;1.30;0.90;;;5.00;92.40;;;;;;4805400;29;20046;-75
2023/11/13 02:43:39;;;;;;;1.05;0.95;;;5.10;92.40;;;;;;4772586;29;20375;-75
2023/11/13 02:46:05;;;;;;;1.40;1.02;;;5.00;92.40;;;;;;4773970;29;20058;-75
2023/11/13 02:48:32;;;;;;;1.23;0.80;;;5.10;92.40;;;;;;4773887;29;20106;-75
2023/11/13 02:50:58;;;;;;;1.55;1.02;;;5.10;92.40;;;;;;4805373;29;20042;-75
2023/11/13 02:53:24;;;;;;;1.60;0.90;;;5.10;92.40;;;;;;4805118;29;20117;-75
2023/11/13 02:55:51;;;;;;;1.25;0.75;;;5.10;92.40;;;;;;4805378;29;20050;-75
2023/11/13 02:58:18;;;;;;;1.35;0.95;;;5.10;92.40;;;;;;4789310;29;20043;-75
2023/11/13 03:00:44;;;;;;;1.15;0.80;;;5.20;92.40;;;;;;4788713;29;20050;-75
2023/11/13 03:03:10;;;;;;;1.02;0.70;;;5.20;92.40;;;;;;4805057;29;20588;-75
2023/11/13 03:05:35;;;;;;;1.13;0.82;;;5.20;92.40;;;;;;4804653;29;20059;-75
2023/11/13 03:08:01;;;;;;;1.20;0.85;;;5.20;92.40;;;;;;4805183;29;20110;-74
2023/11/13 03:10:27;;;;;;;0.85;0.73;;;5.20;92.40;;;;;;4789019;29;20398;-75
2023/11/13 03:12:53;;;;;;;0.70;0.70;;;5.20;92.40;;;;;;4788967;29;20047;-74
2023/11/13 03:15:19;;;;;;;1.33;0.93;;;5.20;92.40;;;;;;4788306;29;20498;-75
2023/11/13 03:17:44;;;;;;;1.25;0.80;;;5.20;92.40;;;;;;4773673;29;20051;-75
2023/11/13 03:20:10;;;;;;;1.17;0.70;;;5.30;92.40;;;;;;4804971;29;20039;-75
2023/11/13 03:22:36;;;;;;;0.75;0.70;;;5.30;92.40;;;;;;4805150;29;20085;-75
2023/11/13 03:25:04;;;;;;;0.90;0.80;;;5.30;92.40;;;;;;4804551;29;20047;-75
2023/11/13 03:27:29;;;;;;;1.15;0.80;;;5.30;92.40;;;;;;4804666;29;20406;-75
2023/11/13 03:29:57;;;;;;;0.98;0.75;;;5.40;92.40;;;;;;4758528;29;20050;-75
2023/11/13 03:32:24;;;;;;;1.27;0.82;;;5.30;92.40;;;;;;4773691;29;20086;-75
2023/11/13 03:34:50;;;;;;;1.40;0.88;;;5.40;92.40;;;;;;4788364;29;20051;-75
2023/11/13 03:37:16;;;;;;;1.10;0.80;;;5.40;92.40;;;;;;4773254;29;20053;-75
2023/11/13 03:39:41;;;;;;;1.52;1.13;;;5.40;92.40;;;;;;4804756;29;20054;-75
2023/11/13 03:42:09;;;;;;;1.10;1.00;;;5.40;92.40;;;;;;4773145;29;20070;-75
2023/11/13 03:44:34;;;;;;;1.02;0.65;;;5.50;92.40;;;;;;4788286;29;20050;-74
2023/11/13 03:47:00;;;;;;;1.40;0.80;;;5.50;92.40;;;;;;4804795;29;20395;-75
2023/11/13 03:49:26;;;;;;;1.50;0.95;;;5.50;92.40;;;;;;4758737;29;20050;-75
2023/11/13 03:51:52;;;;;;;1.02;0.80;;;5.50;92.40;;;;;;4788257;29;20092;-75
2023/11/13 03:54:18;;;;;;;1.20;0.85;;;5.50;92.30;;;;;;4804519;29;20039;-75
2023/11/13 03:56:44;;;;;;;1.30;0.80;;;5.60;92.40;;;;;;4788245;29;20390;-75
2023/11/13 03:59:09;;;;;;;1.45;0.85;;;5.60;92.30;;;;;;4804776;29;20134;-75
2023/11/13 04:01:36;;;;;;;1.00;0.80;;;5.70;92.40;;;;;;4774055;29;20444;-75
2023/11/13 04:04:02;;;;;;;0.82;0.60;;;5.70;92.30;;;;;;4773295;29;20122;-75
2023/11/13 04:06:28;;;;;;;0.93;0.63;;;5.70;92.30;;;;;;4790549;29;20133;-75
2023/11/13 04:08:53;;;;;;;1.17;0.70;;;5.70;92.30;;;;;;4791613;29;20180;-75
2023/11/13 04:11:19;;;;;;;1.02;0.90;;;5.70;92.30;;;;;;4791038;29;20051;-75
2023/11/13 04:13:45;;;;;;;0.90;0.73;;;5.70;92.30;;;;;;4807314;29;20046;-75
2023/11/13 04:16:10;;;;;;;0.73;0.70;;;5.80;92.30;;;;;;4806876;29;20061;-75
2023/11/13 04:18:36;;;;;;;1.33;0.90;;;5.70;92.30;;;;;;4807209;29;20074;-75
2023/11/13 04:21:02;;;;;;;1.10;0.90;;;5.80;92.30;;;;;;4790987;29;20189;-75
2023/11/13 04:23:28;;;;;;;1.33;0.90;;;5.90;92.30;;;;;;4790747;29;20141;-75
2023/11/13 04:25:54;;;;;;;0.70;0.60;;;5.90;92.30;;;;;;4790779;29;20546;-75
2023/11/13 04:28:20;;;;;;;0.85;0.70;;;5.90;92.30;;;;;;4791212;29;20053;-75
2023/11/13 04:30:46;;;;;;;1.17;0.82;;;5.90;92.30;;;;;;4807256;29;20498;-75
2023/11/13 04:33:13;;;;;;;1.05;0.80;;;5.90;92.30;;;;;;4776124;29;20046;-75
2023/11/13 04:35:39;;;;;;;0.60;0.60;;;5.90;92.30;;;;;;4807113;29;20061;-75
2023/11/13 04:38:04;;;;;;;1.08;0.77;;;5.90;92.30;;;;;;4790966;29;20051;-75
2023/11/13 04:40:31;;;;;;;0.75;0.75;;;6.00;92.30;;;;;;4790619;29;20509;-75
2023/11/13 04:42:59;;;;;;;1.27;0.80;;;6.00;92.30;;;;;;4791366;29;20126;-75
2023/11/13 04:45:25;;;;;;;1.20;0.90;;;6.00;92.30;;;;;;4775934;29;20043;-75
2023/11/13 04:47:51;;;;;;;1.48;1.00;;;5.90;92.30;;;;;;4775838;29;20057;-76
2023/11/13 04:50:18;;;;;;;1.25;0.80;;;6.00;92.30;;;;;;4806678;29;20121;-76
2023/11/13 04:52:43;;;;;;;1.20;0.80;;;6.10;92.30;;;;;;4791152;29;20070;-75
2023/11/13 04:55:10;;;;;;;1.48;1.10;;;6.10;92.30;;;;;;4775534;29;20506;-75
2023/11/13 04:57:36;;;;;;;1.25;0.70;;;6.10;92.30;;;;;;4790455;29;20046;-75
2023/11/13 05:00:05;;;;;;;1.58;0.88;;;6.10;92.30;;;;;;4806410;29;20076;-75
2023/11/13 05:02:31;;;;;;;1.42;0.80;;;6.20;92.30;;;;;;4807212;29;20047;-75
2023/11/13 05:04:56;;;;;;;2.65;1.10;;;6.10;92.30;;;;;;4790532;29;20051;-75
2023/11/13 05:07:22;;;;;;;1.35;0.85;;;6.10;92.30;;;;;;4790651;29;20410;-75
2023/11/13 05:09:48;;;;;;;1.30;0.68;;;6.20;92.30;;;;;;4760872;29;20047;-75
2023/11/13 05:12:15;;;;;;;1.85;1.00;;;6.20;92.30;;;;;;4806950;29;20089;-75
2023/11/13 05:14:41;;;;;;;1.30;0.80;;;6.20;92.30;;;;;;4790947;29;20116;-75
2023/11/13 05:17:07;;;;;;;0.88;0.73;;;6.20;92.30;;;;;;4789133;29;20402;-75
2023/11/13 05:19:33;;;;;;;1.58;0.80;;;6.30;92.30;;;;;;4806832;29;20100;-76
2023/11/13 05:21:58;;;;;;;1.50;0.70;;;6.30;92.30;;;;;;4790722;29;20458;-75
2023/11/13 05:24:25;;;;;;;0.90;0.70;;;6.30;92.30;;;;;;4807154;29;20050;-75
2023/11/13 05:26:52;;;;;;;0.90;0.80;;;6.30;92.30;;;;;;4775631;29;20047;-75
2023/11/13 05:29:18;;;;;;;0.80;0.68;;;6.30;92.30;;;;;;4790450;29;20100;-75
2023/11/13 05:31:43;;;;;;;1.77;1.02;;;6.30;92.30;;;;;;4790281;29;20047;-75
2023/11/13 05:34:09;;;;;;;1.25;0.82;;;6.40;92.30;;;;;;4775359;29;20043;-74
2023/11/13 05:36:36;;;;;;;1.90;1.00;;;6.40;92.30;;;;;;4806114;29;20066;-75
2023/11/13 05:39:02;;;;;;;1.83;1.13;;;6.40;92.30;;;;;;4806764;29;20039;-75
2023/11/13 05:41:28;;;;;;;1.55;1.10;;;6.40;92.30;;;;;;4806850;29;20149;-74
2023/11/13 05:43:55;;;;;;;1.52;0.90;;;6.50;92.40;;;;;;4790318;29;20039;-74
2023/11/13 05:46:21;;;;;;;1.45;0.90;;;6.40;92.30;;;;;;4806178;29;20188;-75
2023/11/13 05:48:47;;;;;;;0.93;0.75;;;6.40;92.30;;;;;;4790493;29;20051;-75
2023/11/13 05:51:14;;;;;;;1.85;1.05;;;6.50;92.40;;;;;;4806355;29;20107;-75
2023/11/13 05:53:40;;;;;;;0.90;0.85;;;6.50;92.40;;;;;;4806166;29;20047;-75
2023/11/13 05:56:06;;;;;;;1.58;1.05;;;6.50;92.40;;;;;;4760297;29;20043;-75
2023/11/13 05:58:32;;;;;;;0.75;0.73;;;6.50;92.40;;;;;;4775502;29;20099;-75
2023/11/13 06:00:58;;;;;;;1.13;0.73;;;6.50;92.40;;;;;;4806685;29;20551;-75
2023/11/13 06:03:24;;;;;;;1.75;0.82;;;6.50;92.40;;;;;;4806097;29;20046;-75
2023/11/13 06:05:50;;;;;;;1.45;0.90;;;6.60;92.40;;;;;;4789660;29;20061;-75
2023/11/13 06:08:15;;;;;;;1.50;0.90;;;6.60;92.40;;;;;;4806269;29;20050;-75
2023/11/13 06:10:41;;;;;;;1.00;0.80;;;6.60;92.40;;;;;;4806154;29;20444;-75
2023/11/13 06:13:07;;;;;;;1.98;0.95;;;6.60;92.40;;;;;;4775235;29;20454;-75
2023/11/13 06:15:36;;;;;;;0.70;0.70;;;6.70;92.50;;;;;;4806244;29;20130;-75
2023/11/13 06:18:02;;;;;;;0.80;0.80;;;6.60;92.40;;;;;;4806459;29;20562;-75
2023/11/13 06:20:28;;;;;;;1.92;1.15;;;6.60;92.40;;;;;;4805824;29;20130;-75
2023/11/13 06:22:53;;;;;;;2.10;1.05;;;6.70;92.50;;;;;;4789669;29;20906;-75
2023/11/13 06:25:19;;;;;;;1.17;0.90;;;6.70;92.50;;;;;;4805724;29;20130;-76
2023/11/13 06:27:45;;;;;;;1.45;0.80;;;6.70;92.40;;;;;;4789417;29;20483;-76
2023/11/13 06:30:12;;;;;;;1.30;0.85;;;6.80;92.50;;;;;;4789736;29;20043;-76
2023/11/13 06:32:39;;;;;;;2.40;1.15;;;6.70;92.50;;;;;;4789525;29;20039;-76
2023/11/13 06:35:05;;;;;;;1.30;1.00;;;6.70;92.40;;;;;;4774535;29;20055;-75
2023/11/13 06:37:31;;;;;;;1.35;0.80;;;6.80;92.50;;;;;;4790230;29;20135;-75
2023/11/13 06:39:57;;;;;;;0.90;0.80;;;6.80;92.50;;;;;;4789102;29;20104;-76
2023/11/13 06:42:23;;;;;;;2.10;1.02;;;6.80;92.50;;;;;;4774645;29;20047;-76
2023/11/13 06:44:48;;;;;;;1.40;0.90;;;6.80;92.50;;;;;;4805918;29;20045;-76
2023/11/13 06:47:14;;;;;;;1.17;0.90;;;6.90;92.50;;;;;;4805726;29;20050;-75
2023/11/13 06:49:40;;;;;;;1.13;0.75;;;6.80;92.50;;;;;;4789363;29;20042;-75
2023/11/13 06:52:07;;;;;;;2.65;1.10;;;6.90;92.50;;;;;;4789288;29;20532;-75
2023/11/13 06:54:33;;;;;;;1.27;0.90;;;6.90;92.50;;;;;;4774273;29;20406;-76
2023/11/13 06:56:58;;;;;;;1.27;0.90;;;6.90;92.50;;;;;;4805792;29;20131;-75
2023/11/13 06:59:25;;;;;;;1.00;0.70;;;7.00;92.50;;;;;;4789719;29;20079;-75
2023/11/13 07:01:52;;;;;;;1.70;1.00;;;7.00;92.50;;;;;;4805404;29;20051;-76
2023/11/13 07:04:17;;;;;;;1.50;0.70;;;7.00;92.50;;;;;;4774277;29;20043;-76
2023/11/13 07:06:44;;;;;;;1.95;0.98;;;7.10;92.50;;;;;;4805163;29;20617;-77
2023/11/13 07:09:11;;;;;;;1.52;1.00;;;7.10;92.50;;;;;;4788934;29;20050;-75
2023/11/13 07:11:38;;;;;;;1.38;0.93;;;7.10;92.50;;;;;;4760225;29;20375;-75
2023/11/13 07:14:06;;;;;;;0.85;0.70;;;7.10;92.50;;;;;;4788994;29;20122;-75
2023/11/13 07:16:35;;;;;;;1.20;0.80;;;7.20;92.50;;;;;;4789018;29;20135;-75
2023/11/13 07:19:03;;;;;;;0.98;0.90;;;7.10;92.50;;;;;;4788828;29;20057;-75
2023/11/13 07:21:30;;;;;;;1.95;0.90;;;7.20;92.50;;;;;;4788949;29;20397;-75
2023/11/13 07:23:59;;;;;;;0.93;0.80;;;7.20;92.50;;;;;;4758078;29;20049;-76
2023/11/13 07:26:26;;;;;;;1.23;0.80;;;7.20;92.50;;;;;;4788793;29;20042;-75
2023/11/13 07:28:52;;;;;;;0.93;0.80;;;7.30;92.50;;;;;;4805318;29;20047;-76
2023/11/13 07:31:19;;;;;;;1.40;1.00;;;7.30;92.50;;;;;;4788523;29;20138;-75
2023/11/13 07:33:45;;;;;;;1.27;0.90;;;7.30;92.50;;;;;;4789148;29;20046;-75
2023/11/13 07:36:12;;;;;;;4.45;1.17;;;7.40;92.50;;;;;;4773561;29;20054;-76
2023/11/13 07:47:02;;;;;;;2.03;1.00;;;7.40;92.50;;;;;;4746790;30;20059;-76
2023/11/13 07:57:03;;;;;;;1.42;0.93;;;7.50;92.40;;;;;;4694479;30;20140;-76
2023/11/13 07:59:41;;;;;;;1.95;1.02;;;7.50;92.40;;;;;;4676933;30;20054;-76
2023/11/13 08:05:45;;;;;;;1.40;1.10;;;7.60;92.40;;;;;;4616408;30;20064;-76
2023/11/13 08:08:50;;;;;;;1.77;1.25;;;7.60;92.40;;;;;;4578333;31;20147;-76
2023/11/13 08:15:30;;;;;;;1.30;1.00;;;7.80;92.40;;;;;;4574594;31;20092;-76
2023/11/13 08:21:35;;;;;;;1.10;0.98;;;7.80;92.40;;;;;;4560081;31;20049;-76
2023/11/13 08:27:43;;;;;;;0.85;0.60;;;7.90;92.40;;;;;;4610974;31;19917;-75
2023/11/13 08:30:46;;;;;;;0.82;0.70;;;8.00;92.30;;;;;;4632929;30;20106;-76
2023/11/13 08:33:28;;;;;;;1.15;0.88;;;8.00;92.30;;;;;;4612052;31;20134;-76
2023/11/13 08:36:00;;;;;;;1.95;1.10;;;8.10;92.30;;;;;;4609532;31;20263;-75
2023/11/13 08:38:27;;;;;;;0.93;0.70;;;8.20;92.30;;;;;;4627245;31;20047;-76
2023/11/13 08:40:56;;;;;;;1.13;0.68;;;8.30;92.30;;;;;;4628003;31;20062;-76
2023/11/13 08:43:23;;;;;;;1.08;0.80;;;8.40;92.30;;;;;;4657842;30;20126;-76
2023/11/13 08:45:49;;;;;;;0.73;0.70;;;8.50;92.20;;;;;;4678065;30;20045;-75
2023/11/13 08:48:15;;;;;;;0.85;0.70;;;8.60;92.50;;;;;;4695188;30;20041;-75
2023/11/13 08:50:44;;;;;;;1.45;0.75;;;8.70;92.20;;;;;;4681836;30;20042;-75
2023/11/13 08:53:12;;;;;;;0.93;0.63;;;8.60;92.10;;;;;;4684088;30;20486;-75
2023/11/13 08:55:52;;;;;;;2.70;1.10;;;8.80;92.10;;;;;;4683450;30;20422;-76
2023/11/13 08:58:26;;;;;;;2.08;1.20;;;8.80;92.10;;;;;;4683689;30;20049;-77
2023/11/13 09:01:42;;;;;;;0.95;0.68;;;8.90;92.10;;;;;;4706005;30;20148;-77
2023/11/13 09:04:39;;;;;;;1.30;0.90;;;9.10;92.00;;;;;;4664360;30;20073;-79
2023/11/13 09:07:18;;;;;;;0.98;0.65;;;9.20;91.90;;;;;;4610603;31;20051;-78
2023/11/13 09:09:44;;;;;;;1.65;0.95;;;9.20;91.90;;;;;;4591703;31;20127;-76
2023/11/13 09:12:12;;;;;;;1.27;0.95;;;9.20;91.80;;;;;;4585717;31;20062;-75
2023/11/13 09:14:42;;;;;;;2.05;1.08;;;9.30;91.90;;;;;;4616043;31;20468;-77
2023/11/13 09:17:35;;;;;;;3.03;1.10;;;9.50;91.90;;;;;;4612957;31;20059;-78
2023/11/13 09:20:07;;;;;;;1.08;0.82;;;9.50;91.90;;;;;;4635701;30;20044;-76
2023/11/13 09:23:32;;;;;;;1.63;0.93;;;9.50;91.90;;;;;;4632936;30;20098;-78
2023/11/13 09:26:02;;;;;;;1.88;0.90;;;9.60;92.00;;;;;;4625045;30;20105;-76
2023/11/13 09:31:36;;;;;;;1.75;0.90;;;9.60;91.90;;;;;;4611794;31;20537;-76
2023/11/13 09:34:09;;;;;;;1.83;1.00;;;9.60;91.90;;;;;;4580420;31;20188;-77
2023/11/13 09:36:48;;;;;;;1.40;0.88;;;9.80;92.00;;;;;;4579689;31;20502;-76
2023/11/13 09:39:42;;;;;;;1.90;1.10;;;9.80;92.00;;;;;;4587556;31;20075;-77
2023/11/13 09:49:54;;;;;;;1.17;0.60;;;9.90;92.10;;;;;;4582439;31;20155;-77
2023/11/13 09:52:51;;;;;;;1.60;0.65;;;10.00;92.10;;;;;;4548015;31;20050;-77
2023/11/13 09:58:55;;;;;;;;;;;10.00;92.20;;;;;;4579868;31;20060;-78
2023/11/13 10:02:01;;;;;;;0.30;0.30;;;10.00;92.20;;;;;;4605971;31;19924;-78
2023/11/13 10:04:40;;;;;;;0.50;0.50;;;10.00;92.20;;;;;;4589330;31;20056;-77
2023/11/13 10:07:27;;;;;;;0.43;0.40;;;10.10;92.20;;;;;;4581781;31;20041;-77
2023/11/13 10:13:10;;;;;;;1.23;0.47;;;10.10;92.30;;;;;;4545295;31;20474;-77
2023/11/13 10:15:37;;;;;;;0.90;0.38;;;10.20;92.60;;;;;;4543520;31;20078;-76
2023/11/13 10:18:07;;;;;;;0.63;0.32;;;10.20;92.30;;;;;;4535241;31;20092;-77
2023/11/13 10:20:51;;;;;;;0.47;0.30;;;10.20;92.40;;;;;;4493672;31;20048;-78
2023/11/13 10:23:16;;;;;;;0.30;0.30;;;10.20;92.40;;;;;;4571927;31;20113;-78
2023/11/13 10:28:40;;;;;;;1.75;0.45;;;10.30;92.50;;;;;;4605401;31;20091;-76
2023/11/13 10:31:16;;;;;;;0.45;0.30;;;10.20;92.50;;;;;;4613168;31;20052;-76
2023/11/13 10:33:59;;;;;;;1.48;0.55;;;10.20;92.50;;;;;;4610084;31;20061;-78
2023/11/13 10:40:17;;;;;;;0.35;0.20;;;10.20;92.60;;;;;;4641110;30;20883;-77
2023/11/13 10:43:22;;;;;;;1.05;0.40;;;10.20;92.60;;;;;;4644787;30;20395;-78
2023/11/13 10:46:42;;;;;;;0.30;0.30;;;10.30;92.70;;;;;;4583523;31;20131;-77
2023/11/13 10:49:12;;;;;;;0.40;0.30;;;10.20;92.70;;;;;;4567562;31;20509;-76
2023/11/13 10:51:47;;;;;;;0.30;0.30;;;10.20;92.60;;;;;;4639528;30;20051;-76
2023/11/13 11:01:42;;;;;;;0.40;0.30;;;10.30;92.80;;;;;;4628395;30;20055;-77
2023/11/13 11:04:10;;;;;;;0.82;0.30;;;10.20;92.80;;;;;;4614989;30;20055;-76
2023/11/13 11:06:40;;;;;;;0.22;0.20;;;10.20;92.80;;;;;;4631372;30;20043;-76
2023/11/13 11:09:07;;;;;;;0.52;0.22;;;10.20;92.80;;;;;;4623880;30;20050;-76
2023/11/13 11:11:35;;;;;;;0.28;0.28;;;10.20;92.80;;;;;;4680442;30;20042;-76
2023/11/13 11:14:11;;;;;;;0.20;0.20;;;10.30;92.90;;;;;;4682070;30;20049;-76
2023/11/13 11:16:58;;;;;;;0.20;0.20;;;10.20;92.90;;;;;;4667245;30;20078;-76
2023/11/13 11:19:31;;;;;;;0.20;0.20;;;10.20;92.90;;;;;;4668735;30;20525;-76
2023/11/13 11:22:09;;;;;;;0.20;0.20;;;10.40;93.00;;;;;;4695105;30;20042;-75
2023/11/13 11:25:04;;;;;;;0.30;0.30;;;10.20;92.90;;;;;;4706534;30;20068;-76
2023/11/13 11:27:39;;;;;;;0.20;0.20;;;10.30;93.00;;;;;;4717308;30;20083;-76
2023/11/13 11:30:42;;;;;;;0.30;0.30;;;10.30;93.00;;;;;;4717057;30;20049;-76
2023/11/13 11:33:38;;;;;;;0.57;0.30;;;10.30;93.00;;;;;;4779247;30;20134;-76
2023/11/13 11:36:06;;;;;;;0.30;0.30;;;10.30;93.00;;;;;;4771528;30;20142;-77
2023/11/13 11:38:33;;;;;;;0.25;0.25;;;10.40;93.00;;;;;;4772790;30;20415;-76
2023/11/13 11:40:59;;;;;;;0.43;0.38;;;10.30;92.90;;;;;;4770561;30;20574;-77
2023/11/13 11:43:43;;;;;;;0.30;0.30;;;10.40;93.00;;;;;;4785190;30;20582;-77
2023/11/13 11:49:19;;;;;;;0.20;0.20;;;10.50;93.00;;;;;;4753434;30;20048;-77
2023/11/13 11:51:45;;;;;;;1.52;0.30;;;10.50;93.00;;;;;;4766484;30;20061;-76
2023/11/13 11:54:12;;;;;;;1.02;0.32;;;10.60;93.00;;;;;;4767054;30;20503;-77
2023/11/13 11:56:38;;;;;;;0.43;0.40;;;10.60;93.00;;;;;;4736176;30;20055;-77
2023/11/13 11:59:08;;;;;;;0.32;0.32;;;10.70;93.20;;;;;;4765892;30;20066;-76
2023/11/13 12:02:11;;;;;;;0.80;0.52;;;10.70;92.90;;;;;;4751004;30;20147;-76
2023/11/13 12:05:29;;;;;;;0.30;0.25;;;10.80;92.90;;;;;;4677574;30;20157;-76
2023/11/13 12:08:11;;;;;;;0.57;0.50;;;10.80;92.80;;;;;;4663465;30;20046;-76
2023/11/13 12:11:07;;;;;;;1.05;0.70;;;11.00;92.80;;;;;;4642645;30;20958;-78
2023/11/13 12:13:50;;;;;;;0.90;0.57;;;11.10;92.70;;;;;;4647510;30;20088;-77
2023/11/13 12:17:03;;;;;;;2.30;0.95;;;11.10;92.70;;;;;;4644486;30;20054;-77
2023/11/13 12:19:36;;;;;;;1.25;0.77;;;11.20;92.70;;;;;;4627807;30;20128;-78
2023/11/13 12:22:03;;;;;;;1.65;0.90;;;11.30;92.60;;;;;;4605853;31;20101;-76
2023/11/13 12:24:48;;;;;;;1.02;0.85;;;11.40;92.60;;;;;;4562113;31;20061;-77
2023/11/13 12:34:14;;;;;;;1.92;1.00;;;11.60;92.50;;;;;;4583617;31;20414;-76
2023/11/13 12:37:05;;;;;;;1.38;0.98;;;11.70;92.50;;;;;;4569989;31;20121;-77
2023/11/13 12:39:46;;;;;;;3.75;1.20;;;11.80;92.50;;;;;;4577641;31;20128;-76
2023/11/13 12:42:12;;;;;;;1.55;0.90;;;11.90;92.50;;;;;;4616612;30;20068;-77
2023/11/13 12:44:38;;;;;;;2.15;1.20;;;11.90;92.40;;;;;;4586943;31;20044;-77
2023/11/13 12:47:05;;;;;;;1.98;0.90;;;12.00;92.40;;;;;;4594863;31;20043;-77
2023/11/13 12:49:34;;;;;;;1.98;1.05;;;12.10;92.40;;;;;;4631882;30;20099;-78
2023/11/13 12:52:04;;;;;;;3.20;1.10;;;12.20;92.50;;;;;;4633041;30;20047;-78
2023/11/13 12:54:34;;;;;;;1.35;0.88;;;12.20;92.40;;;;;;4684309;30;20041;-77
2023/11/13 12:57:15;;;;;;;3.85;1.00;;;12.40;92.50;;;;;;4716774;30;20041;-78
2023/11/13 12:59:49;;;;;;;1.97;0.83;;;12.30;92.50;;;;;;4699751;30;20065;-78
2023/11/13 13:02:15;;;;;;;1.38;1.02;;;12.50;92.50;;;;;;4705916;30;20303;-77
2023/11/13 13:04:44;;;;;;;1.55;1.10;;;12.60;92.50;;;;;;4719078;30;20527;-78
2023/11/13 13:07:13;;;;;;;1.45;1.00;;;12.60;92.50;;;;;;4756946;29;20150;-77
2023/11/13 13:09:44;;;;;;;1.85;1.10;;;12.70;92.50;;;;;;4784583;29;20062;-78
2023/11/13 13:16:16;;;;;;;2.03;0.90;;;12.70;92.60;;;;;;4680853;30;20094;-79
2023/11/13 13:18:48;;;;;;;2.50;1.23;;;12.80;92.50;;;;;;4652604;30;20046;-76
2023/11/13 13:21:21;;;;;;;2.33;1.00;;;12.80;92.50;;;;;;4666994;30;20149;-75
2023/11/13 13:35:13;;;;;;;2.70;1.10;;;13.20;92.60;;;;;;4644385;30;20111;-77
2023/11/13 13:37:42;;;;;;;1.85;1.00;;;13.40;92.60;;;;;;4598109;31;20096;-79
2023/11/13 13:40:10;;;;;;;1.65;1.00;;;13.40;92.50;;;;;;4568433;31;20091;-78
2023/11/13 13:42:40;;;;;;;1.33;0.98;;;13.40;92.50;;;;;;4549640;31;20030;-80
2023/11/13 13:45:14;;;;;;;1.30;0.90;;;13.40;92.50;;;;;;4522710;31;20078;-78
2023/11/13 13:47:41;;;;;;;1.17;0.98;;;13.60;92.60;;;;;;4553210;31;20079;-78
2023/11/13 13:58:12;;;;;;;0.77;0.63;;;13.70;92.60;;;;;;4578297;31;20064;-78
2023/11/13 14:01:20;;;;;;;1.70;0.80;;;13.80;92.60;;;;;;4594860;31;20084;-77
2023/11/13 14:07:44;;;;;;;0.90;0.75;;;13.80;92.60;;;;;;4560495;30;20513;-79
2023/11/13 14:10:12;;;;;;;1.23;0.90;;;13.90;92.70;;;;;;4597164;31;20147;-77
2023/11/13 14:12:40;;;;;;;1.23;0.80;;;14.00;92.70;;;;;;4592933;31;20108;-76
2023/11/13 14:15:10;;;;;;;2.30;0.90;;;14.00;93.00;;;;;;4566514;31;20057;-76
2023/11/13 14:17:40;;;;;;;0.68;0.68;;;14.00;92.70;;;;;;4567281;31;20473;-77
2023/11/13 14:20:47;;;;;;;1.25;0.90;;;14.00;92.70;;;;;;4566100;31;20052;-77
2023/11/13 14:23:20;;;;;;;1.23;0.90;;;14.00;92.80;;;;;;4595274;31;20555;-78
2023/11/13 14:26:04;;;;;;;1.58;0.90;;;14.00;93.00;;;;;;4596373;31;20477;-76
2023/11/13 14:28:36;;;;;;;2.50;1.02;;;14.10;92.80;;;;;;4596552;31;20138;-75
2023/11/13 14:34:32;;;;;;;0.98;0.80;;;14.10;92.90;;;;;;4630335;30;20150;-80
2023/11/13 14:37:25;;;;;;;1.10;0.93;;;14.20;92.90;;;;;;4621233;30;20139;-78
2023/11/13 14:40:08;;;;;;;0.88;0.70;;;14.20;92.90;;;;;;4583639;31;20072;-77
2023/11/13 14:50:39;;;;;;;0.80;0.65;;;14.20;92.80;;;;;;4647023;30;20133;-77
2023/11/13 14:57:34;;;;;;;1.40;0.98;;;14.20;92.80;;;;;;4611895;31;20142;-76
2023/11/13 15:01:02;;;;;;;1.92;0.90;;;14.10;92.70;;;;;;4606809;31;20616;-76
2023/11/13 15:03:39;;;;;;;2.17;0.90;;;14.30;92.70;;;;;;4613369;31;20051;-77
2023/11/13 15:06:06;;;;;;;2.15;0.70;;;14.30;92.70;;;;;;4610282;31;20516;-74
2023/11/13 15:08:34;;;;;;;2.15;1.10;;;14.30;92.70;;;;;;4581934;31;20080;-76